createdAt,value
2018-12-23T00:00:40.915Z,993.22
2018-12-23T00:01:39.891Z,993.23
2018-12-23T00:02:39.868Z,993.24
2018-12-23T00:03:39.850Z,993.29
2018-12-23T00:04:39.852Z,993.31
2018-12-23T00:05:40.481Z,993.27
2018-12-23T00:06:39.854Z,993.31
2018-12-23T00:07:39.801Z,993.26
2018-12-23T00:08:40.475Z,993.27
2018-12-23T00:09:39.793Z,993.35
2018-12-23T00:10:39.768Z,993.34
2018-12-23T00:11:40.513Z,993.39
2018-12-23T00:12:40.523Z,993.40
2018-12-23T00:13:39.737Z,993.34
2018-12-23T00:14:39.749Z,993.39
2018-12-23T00:15:39.720Z,993.36
2018-12-23T00:16:40.042Z,993.38
2018-12-23T00:17:41.503Z,993.32
2018-12-23T00:18:39.768Z,993.29
2018-12-23T00:19:39.681Z,993.34
2018-12-23T00:20:39.681Z,993.36
2018-12-23T00:21:39.715Z,993.39
2018-12-23T00:22:39.665Z,993.36
2018-12-23T00:23:39.692Z,993.36
2018-12-23T00:24:39.678Z,993.36
2018-12-23T00:25:39.630Z,993.32
2018-12-23T00:26:39.986Z,993.35
2018-12-23T00:27:39.616Z,993.36
2018-12-23T00:28:39.595Z,993.39
2018-12-23T00:29:39.692Z,993.38
2018-12-23T00:30:40.510Z,993.47
2018-12-23T00:31:40.031Z,993.45
2018-12-23T00:32:39.580Z,993.46
2018-12-23T00:33:39.518Z,993.45
2018-12-23T00:34:39.569Z,993.47
2018-12-23T00:35:39.616Z,993.45
2018-12-23T00:36:40.010Z,993.37
2018-12-23T00:37:39.503Z,993.46
2018-12-23T00:38:39.530Z,993.52
2018-12-23T00:39:39.502Z,993.48
2018-12-23T00:40:39.464Z,993.47
2018-12-23T00:41:39.538Z,993.41
2018-12-23T00:42:39.447Z,993.34
2018-12-23T00:43:39.417Z,993.45
2018-12-23T00:44:39.421Z,993.43
2018-12-23T00:45:39.463Z,993.45
2018-12-23T00:46:39.598Z,993.47
2018-12-23T00:47:39.409Z,993.53
2018-12-23T00:48:39.364Z,993.56
2018-12-23T00:49:39.366Z,993.52
2018-12-23T00:50:39.413Z,993.46
2018-12-23T00:51:39.335Z,993.48
2018-12-23T00:52:39.516Z,993.41
2018-12-23T00:53:39.956Z,993.40
2018-12-23T00:54:39.295Z,993.38
2018-12-23T00:55:39.291Z,993.36
2018-12-23T00:56:39.275Z,993.38
2018-12-23T00:57:39.499Z,993.37
2018-12-23T00:58:39.323Z,993.38
2018-12-23T00:59:39.550Z,993.41
2018-12-23T01:00:39.282Z,993.39
2018-12-23T01:01:39.222Z,993.50
2018-12-23T01:02:39.501Z,993.46
2018-12-23T01:03:39.193Z,993.45
2018-12-23T01:04:39.250Z,993.43
2018-12-23T01:05:39.182Z,993.42
2018-12-23T01:06:39.198Z,993.43
2018-12-23T01:07:39.484Z,993.46
2018-12-23T01:08:39.185Z,993.47
2018-12-23T01:09:39.136Z,993.44
2018-12-23T01:10:39.174Z,993.44
2018-12-23T01:11:39.224Z,993.45
2018-12-23T01:12:39.495Z,993.44
2018-12-23T01:13:39.099Z,993.48
2018-12-23T01:14:39.109Z,993.52
2018-12-23T01:15:39.151Z,993.52
2018-12-23T01:16:39.087Z,993.59
2018-12-23T01:17:39.106Z,993.66
2018-12-23T01:18:39.087Z,993.68
2018-12-23T01:19:39.075Z,993.68
2018-12-23T01:20:39.991Z,993.63
2018-12-23T01:21:39.037Z,993.66
2018-12-23T01:22:39.053Z,993.64
2018-12-23T01:23:38.985Z,993.71
2018-12-23T01:24:38.998Z,993.66
2018-12-23T01:25:39.048Z,993.67
2018-12-23T01:26:38.951Z,993.69
2018-12-23T01:27:39.090Z,993.70
2018-12-23T01:28:38.952Z,993.71
2018-12-23T01:29:38.912Z,993.66
2018-12-23T01:30:39.485Z,993.70
2018-12-23T01:31:38.911Z,993.61
2018-12-23T01:32:38.908Z,993.65
2018-12-23T01:33:38.872Z,993.69
2018-12-23T01:34:38.860Z,993.64
2018-12-23T01:35:38.912Z,993.60
2018-12-23T01:36:38.864Z,993.63
2018-12-23T01:37:38.979Z,993.65
2018-12-23T01:38:38.832Z,993.63
2018-12-23T01:39:38.811Z,993.67
2018-12-23T01:40:38.810Z,993.68
2018-12-23T01:41:38.813Z,993.71
2018-12-23T01:42:38.823Z,993.69
2018-12-23T01:43:38.895Z,993.64
2018-12-23T01:44:38.772Z,993.74
2018-12-23T01:45:38.771Z,993.65
2018-12-23T01:46:38.734Z,993.72
2018-12-23T01:47:38.741Z,993.62
2018-12-23T01:48:40.479Z,993.64
2018-12-23T01:49:38.721Z,993.66
2018-12-23T01:50:38.711Z,993.69
2018-12-23T01:51:38.732Z,993.69
2018-12-23T01:52:38.993Z,993.67
2018-12-23T01:53:38.665Z,993.66
2018-12-23T01:54:38.741Z,993.69
2018-12-23T01:55:38.648Z,993.76
2018-12-23T01:56:38.650Z,993.74
2018-12-23T01:57:39.002Z,993.81
2018-12-23T01:58:38.640Z,993.82
2018-12-23T01:59:38.634Z,993.85
2018-12-23T02:00:38.626Z,993.91
2018-12-23T02:01:38.619Z,993.89
2018-12-23T02:02:38.999Z,993.97
2018-12-23T02:03:38.624Z,994.01
2018-12-23T02:04:38.822Z,994.00
2018-12-23T02:05:45.862Z,993.95
2018-12-23T02:06:39.623Z,993.91
2018-12-23T02:07:39.063Z,993.91
2018-12-23T02:08:38.499Z,993.88
2018-12-23T02:09:38.502Z,993.88
2018-12-23T02:10:38.520Z,993.88
2018-12-23T02:11:38.472Z,993.86
2018-12-23T02:12:38.497Z,993.85
2018-12-23T02:13:38.465Z,993.87
2018-12-23T02:14:38.437Z,993.86
2018-12-23T02:15:38.563Z,993.88
2018-12-23T02:16:38.426Z,993.89
2018-12-23T02:17:38.404Z,993.92
2018-12-23T02:18:38.513Z,993.85
2018-12-23T02:19:39.408Z,993.87
2018-12-23T02:20:38.368Z,993.83
2018-12-23T02:21:38.403Z,993.92
2018-12-23T02:22:38.370Z,993.90
2018-12-23T02:23:38.343Z,993.91
2018-12-23T02:24:38.485Z,993.89
2018-12-23T02:25:38.376Z,993.88
2018-12-23T02:26:38.359Z,993.91
2018-12-23T02:27:38.296Z,993.94
2018-12-23T02:28:38.320Z,993.97
2018-12-23T02:29:38.278Z,993.98
2018-12-23T02:30:38.483Z,993.92
2018-12-23T02:31:38.267Z,993.90
2018-12-23T02:32:38.307Z,993.97
2018-12-23T02:33:38.509Z,993.94
2018-12-23T02:34:38.979Z,993.88
2018-12-23T02:35:38.211Z,993.90
2018-12-23T02:36:39.228Z,993.91
2018-12-23T02:37:38.204Z,993.94
2018-12-23T02:38:38.271Z,993.99
2018-12-23T02:39:38.181Z,993.98
2018-12-23T02:40:38.147Z,993.92
2018-12-23T02:41:38.156Z,993.93
2018-12-23T02:42:38.965Z,993.92
2018-12-23T02:43:38.130Z,993.94
2018-12-23T02:44:38.542Z,993.96
2018-12-23T02:45:38.100Z,993.94
2018-12-23T02:46:38.185Z,993.98
2018-12-23T02:47:39.028Z,994.04
2018-12-23T02:48:38.134Z,994.03
2018-12-23T02:49:38.058Z,993.99
2018-12-23T02:50:38.208Z,994.01
2018-12-23T02:51:38.049Z,993.98
2018-12-23T02:52:38.069Z,993.97
2018-12-23T02:53:38.488Z,993.97
2018-12-23T02:54:38.021Z,994.00
2018-12-23T02:55:38.013Z,993.97
2018-12-23T02:56:38.009Z,993.98
2018-12-23T02:57:37.983Z,993.97
2018-12-23T02:58:37.963Z,993.93
2018-12-23T02:59:37.955Z,993.93
2018-12-23T03:00:37.957Z,993.98
2018-12-23T03:01:37.922Z,993.91
2018-12-23T03:02:38.041Z,993.94
2018-12-23T03:03:38.907Z,993.95
2018-12-23T03:04:37.904Z,993.93
2018-12-23T03:05:37.934Z,993.91
2018-12-23T03:06:37.883Z,993.89
2018-12-23T03:07:38.891Z,993.93
2018-12-23T03:08:38.082Z,993.92
2018-12-23T03:09:37.841Z,993.95
2018-12-23T03:10:37.831Z,993.93
2018-12-23T03:11:37.818Z,993.91
2018-12-23T03:12:37.822Z,993.93
2018-12-23T03:13:38.002Z,993.87
2018-12-23T03:14:37.828Z,993.87
2018-12-23T03:15:37.787Z,993.89
2018-12-23T03:16:37.770Z,993.88
2018-12-23T03:17:37.783Z,993.95
2018-12-23T03:18:37.762Z,993.98
2018-12-23T03:19:37.832Z,993.95
2018-12-23T03:20:37.769Z,993.99
2018-12-23T03:21:37.718Z,993.91
2018-12-23T03:22:37.707Z,993.91
2018-12-23T03:23:37.704Z,993.90
2018-12-23T03:24:37.685Z,993.86
2018-12-23T03:25:37.746Z,993.88
2018-12-23T03:26:37.688Z,993.88
2018-12-23T03:27:37.651Z,993.86
2018-12-23T03:28:37.979Z,993.84
2018-12-23T03:29:37.624Z,993.83
2018-12-23T03:30:37.627Z,993.89
2018-12-23T03:31:37.624Z,993.85
2018-12-23T03:32:37.633Z,993.84
2018-12-23T03:33:37.610Z,993.77
2018-12-23T03:34:37.564Z,993.79
2018-12-23T03:35:37.577Z,993.83
2018-12-23T03:36:37.548Z,993.84
2018-12-23T03:37:37.543Z,993.83
2018-12-23T03:38:38.050Z,993.79
2018-12-23T03:39:37.521Z,993.80
2018-12-23T03:40:37.499Z,993.81
2018-12-23T03:41:37.528Z,993.81
2018-12-23T03:42:37.481Z,993.74
2018-12-23T03:43:38.002Z,993.73
2018-12-23T03:44:37.504Z,993.73
2018-12-23T03:45:37.456Z,993.68
2018-12-23T03:46:37.441Z,993.68
2018-12-23T03:47:37.460Z,993.69
2018-12-23T03:48:37.463Z,993.68
2018-12-23T03:49:37.409Z,993.69
2018-12-23T03:50:37.434Z,993.73
2018-12-23T03:51:37.429Z,993.74
2018-12-23T03:52:37.374Z,993.69
2018-12-23T03:53:37.475Z,993.73
2018-12-23T03:54:37.366Z,993.69
2018-12-23T03:55:37.346Z,993.72
2018-12-23T03:56:37.566Z,993.71
2018-12-23T03:57:37.317Z,993.67
2018-12-23T03:58:37.330Z,993.68
2018-12-23T03:59:37.304Z,993.62
2018-12-23T04:00:37.320Z,993.60
2018-12-23T04:01:37.287Z,993.70
2018-12-23T04:02:37.322Z,993.64
2018-12-23T04:03:37.331Z,993.66
2018-12-23T04:04:37.240Z,993.66
2018-12-23T04:05:37.243Z,993.67
2018-12-23T04:06:37.256Z,993.69
2018-12-23T04:07:37.225Z,993.59
2018-12-23T04:08:37.262Z,993.65
2018-12-23T04:09:37.528Z,993.71
2018-12-23T04:10:37.196Z,993.67
2018-12-23T04:11:37.283Z,993.67
2018-12-23T04:12:37.388Z,993.70
2018-12-23T04:13:37.167Z,993.65
2018-12-23T04:14:37.145Z,993.65
2018-12-23T04:15:37.540Z,993.60
2018-12-23T04:16:37.133Z,993.57
2018-12-23T04:17:37.146Z,993.57
2018-12-23T04:18:37.133Z,993.59
2018-12-23T04:19:37.088Z,993.57
2018-12-23T04:20:37.109Z,993.59
2018-12-23T04:21:37.636Z,993.54
2018-12-23T04:22:37.065Z,993.52
2018-12-23T04:23:37.485Z,993.53
2018-12-23T04:24:37.034Z,993.53
2018-12-23T04:25:37.022Z,993.54
2018-12-23T04:26:37.024Z,993.56
2018-12-23T04:27:37.077Z,993.56
2018-12-23T04:28:37.097Z,993.54
2018-12-23T04:29:37.013Z,993.51
2018-12-23T04:30:37.007Z,993.52
2018-12-23T04:31:37.007Z,993.48
2018-12-23T04:32:36.973Z,993.52
2018-12-23T04:33:36.973Z,993.53
2018-12-23T04:34:37.025Z,993.55
2018-12-23T04:35:36.931Z,993.54
2018-12-23T04:36:36.902Z,993.52
2018-12-23T04:37:36.950Z,993.51
2018-12-23T04:38:36.888Z,993.52
2018-12-23T04:39:36.884Z,993.48
2018-12-23T04:40:36.890Z,993.51
2018-12-23T04:41:36.981Z,993.51
2018-12-23T04:42:36.852Z,993.50
2018-12-23T04:43:36.864Z,993.57
2018-12-23T04:44:36.828Z,993.53
2018-12-23T04:45:36.815Z,993.47
2018-12-23T04:46:36.868Z,993.46
2018-12-23T04:47:36.779Z,993.54
2018-12-23T04:48:37.462Z,993.52
2018-12-23T04:49:36.980Z,993.44
2018-12-23T04:50:36.753Z,993.42
2018-12-23T04:51:36.766Z,993.40
2018-12-23T04:52:36.819Z,993.39
2018-12-23T04:53:36.754Z,993.37
2018-12-23T04:54:36.712Z,993.38
2018-12-23T04:55:37.043Z,993.35
2018-12-23T04:56:36.728Z,993.29
2018-12-23T04:57:36.736Z,993.31
2018-12-23T04:58:36.727Z,993.27
2018-12-23T04:59:36.667Z,993.31
2018-12-23T05:00:36.639Z,993.34
2018-12-23T05:01:36.706Z,993.32
2018-12-23T05:02:36.626Z,993.29
2018-12-23T05:03:42.567Z,993.31
2018-12-23T05:04:37.600Z,993.25
2018-12-23T05:05:36.711Z,993.28
2018-12-23T05:06:43.347Z,993.26
2018-12-23T05:07:37.992Z,993.21
2018-12-23T05:08:36.557Z,993.26
2018-12-23T05:09:36.563Z,993.25
2018-12-23T05:10:36.536Z,993.24
2018-12-23T05:11:36.598Z,993.24
2018-12-23T05:12:36.519Z,993.23
2018-12-23T05:13:36.548Z,993.23
2018-12-23T05:14:36.509Z,993.19
2018-12-23T05:15:36.479Z,993.22
2018-12-23T05:16:36.488Z,993.27
2018-12-23T05:17:36.511Z,993.23
2018-12-23T05:18:36.460Z,993.28
2018-12-23T05:19:36.492Z,993.23
2018-12-23T05:20:36.439Z,993.24
2018-12-23T05:21:36.414Z,993.19
2018-12-23T05:22:36.403Z,993.18
2018-12-23T05:23:36.450Z,993.27
2018-12-23T05:24:36.387Z,993.29
2018-12-23T05:25:36.510Z,993.27
2018-12-23T05:26:36.363Z,993.25
2018-12-23T05:27:36.347Z,993.28
2018-12-23T05:28:36.335Z,993.28
2018-12-23T05:29:36.372Z,993.27
2018-12-23T05:30:36.311Z,993.25
2018-12-23T05:31:36.482Z,993.24
2018-12-23T05:32:36.373Z,993.24
2018-12-23T05:33:36.304Z,993.23
2018-12-23T05:34:36.297Z,993.21
2018-12-23T05:35:36.322Z,993.30
2018-12-23T05:36:36.272Z,993.24
2018-12-23T05:37:36.482Z,993.28
2018-12-23T05:38:36.241Z,993.26
2018-12-23T05:39:36.230Z,993.23
2018-12-23T05:40:36.235Z,993.25
2018-12-23T05:41:36.264Z,993.22
2018-12-23T05:42:36.216Z,993.22
2018-12-23T05:43:36.177Z,993.24
2018-12-23T05:44:36.168Z,993.25
2018-12-23T05:45:36.164Z,993.24
2018-12-23T05:46:36.153Z,993.21
2018-12-23T05:47:36.195Z,993.24
2018-12-23T05:48:36.132Z,993.29
2018-12-23T05:49:36.153Z,993.28
2018-12-23T05:50:36.102Z,993.29
2018-12-23T05:51:36.108Z,993.29
2018-12-23T05:52:36.985Z,993.29
2018-12-23T05:53:36.173Z,993.28
2018-12-23T05:54:36.089Z,993.29
2018-12-23T05:55:36.057Z,993.31
2018-12-23T05:56:36.045Z,993.30
2018-12-23T05:57:36.041Z,993.30
2018-12-23T05:58:36.481Z,993.31
2018-12-23T05:59:36.101Z,993.32
2018-12-23T06:00:36.009Z,993.36
2018-12-23T06:01:35.987Z,993.32
2018-12-23T06:02:36.007Z,993.30
2018-12-23T06:03:36.528Z,993.30
2018-12-23T06:04:35.990Z,993.25
2018-12-23T06:05:35.970Z,993.27
2018-12-23T06:06:35.965Z,993.27
2018-12-23T06:07:35.918Z,993.28
2018-12-23T06:08:35.942Z,993.25
2018-12-23T06:09:35.980Z,993.26
2018-12-23T06:10:35.939Z,993.22
2018-12-23T06:11:35.928Z,993.24
2018-12-23T06:12:35.873Z,993.30
2018-12-23T06:13:35.887Z,993.27
2018-12-23T06:14:35.843Z,993.27
2018-12-23T06:15:36.017Z,993.28
2018-12-23T06:16:35.866Z,993.26
2018-12-23T06:17:35.829Z,993.30
2018-12-23T06:18:35.811Z,993.29
2018-12-23T06:19:35.824Z,993.33
2018-12-23T06:20:35.847Z,993.36
2018-12-23T06:21:36.027Z,993.32
2018-12-23T06:22:35.774Z,993.34
2018-12-23T06:23:36.054Z,993.31
2018-12-23T06:24:35.738Z,993.34
2018-12-23T06:25:35.731Z,993.34
2018-12-23T06:26:35.732Z,993.30
2018-12-23T06:27:35.731Z,993.30
2018-12-23T06:28:35.984Z,993.34
2018-12-23T06:29:35.770Z,993.27
2018-12-23T06:30:36.466Z,993.31
2018-12-23T06:31:35.781Z,993.31
2018-12-23T06:32:35.686Z,993.32
2018-12-23T06:33:36.494Z,993.36
2018-12-23T06:34:35.686Z,993.32
2018-12-23T06:35:35.657Z,993.34
2018-12-23T06:36:35.641Z,993.31
2018-12-23T06:37:35.623Z,993.30
2018-12-23T06:38:36.001Z,993.31
2018-12-23T06:39:35.588Z,993.28
2018-12-23T06:40:35.622Z,993.31
2018-12-23T06:41:35.574Z,993.27
2018-12-23T06:42:35.545Z,993.34
2018-12-23T06:43:36.023Z,993.28
2018-12-23T06:44:35.525Z,993.34
2018-12-23T06:45:35.550Z,993.31
2018-12-23T06:46:35.552Z,993.30
2018-12-23T06:47:35.496Z,993.29
2018-12-23T06:48:36.028Z,993.26
2018-12-23T06:49:35.474Z,993.27
2018-12-23T06:50:35.468Z,993.26
2018-12-23T06:51:35.457Z,993.26
2018-12-23T06:52:35.477Z,993.29
2018-12-23T06:53:35.479Z,993.28
2018-12-23T06:54:35.416Z,993.25
2018-12-23T06:55:35.434Z,993.27
2018-12-23T06:56:35.413Z,993.24
2018-12-23T06:57:35.401Z,993.22
2018-12-23T06:58:35.423Z,993.25
2018-12-23T06:59:35.387Z,993.30
2018-12-23T07:00:35.370Z,993.24
2018-12-23T07:01:35.366Z,993.23
2018-12-23T07:02:35.361Z,993.25
2018-12-23T07:03:35.482Z,993.25
2018-12-23T07:04:35.542Z,993.24
2018-12-23T07:05:35.335Z,993.28
2018-12-23T07:06:35.287Z,993.28
2018-12-23T07:07:35.315Z,993.26
2018-12-23T07:08:35.545Z,993.20
2018-12-23T07:09:35.259Z,993.24
2018-12-23T07:10:35.249Z,993.25
2018-12-23T07:11:35.247Z,993.28
2018-12-23T07:12:35.236Z,993.29
2018-12-23T07:13:35.371Z,993.28
2018-12-23T07:14:35.214Z,993.30
2018-12-23T07:15:35.196Z,993.26
2018-12-23T07:16:35.211Z,993.22
2018-12-23T07:17:35.229Z,993.23
2018-12-23T07:18:35.199Z,993.19
2018-12-23T07:19:35.201Z,993.20
2018-12-23T07:20:35.153Z,993.19
2018-12-23T07:21:35.158Z,993.21
2018-12-23T07:22:35.119Z,993.21
2018-12-23T07:23:35.148Z,993.21
2018-12-23T07:24:35.133Z,993.21
2018-12-23T07:25:35.532Z,993.25
2018-12-23T07:26:35.085Z,993.26
2018-12-23T07:27:35.140Z,993.30
2018-12-23T07:28:35.079Z,993.31
2018-12-23T07:29:35.074Z,993.27
2018-12-23T07:30:35.041Z,993.29
2018-12-23T07:31:35.971Z,993.25
2018-12-23T07:32:35.049Z,993.24
2018-12-23T07:33:35.030Z,993.24
2018-12-23T07:34:35.006Z,993.23
2018-12-23T07:35:34.989Z,993.27
2018-12-23T07:36:34.979Z,993.32
2018-12-23T07:37:35.481Z,993.27
2018-12-23T07:38:34.992Z,993.22
2018-12-23T07:39:35.000Z,993.25
2018-12-23T07:40:35.056Z,993.23
2018-12-23T07:41:34.922Z,993.28
2018-12-23T07:42:34.908Z,993.26
2018-12-23T07:43:34.999Z,993.28
2018-12-23T07:44:35.484Z,993.27
2018-12-23T07:45:34.899Z,993.29
2018-12-23T07:46:34.890Z,993.25
2018-12-23T07:47:36.027Z,993.26
2018-12-23T07:48:34.954Z,993.21
2018-12-23T07:49:35.352Z,993.24
2018-12-23T07:50:34.839Z,993.14
2018-12-23T07:51:35.486Z,993.14
2018-12-23T07:52:34.823Z,993.14
2018-12-23T07:53:35.455Z,993.14
2018-12-23T07:54:34.821Z,993.18
2018-12-23T07:55:34.813Z,993.18
2018-12-23T07:56:34.783Z,993.17
2018-12-23T07:57:34.767Z,993.21
2018-12-23T07:58:34.750Z,993.10
2018-12-23T07:59:34.796Z,993.11
2018-12-23T08:00:34.754Z,993.15
2018-12-23T08:01:35.507Z,993.08
2018-12-23T08:02:34.690Z,993.08
2018-12-23T08:03:35.007Z,993.07
2018-12-23T08:04:34.733Z,993.08
2018-12-23T08:05:34.717Z,993.11
2018-12-23T08:06:34.708Z,993.07
2018-12-23T08:07:36.518Z,993.14
2018-12-23T08:08:35.054Z,993.17
2018-12-23T08:09:34.690Z,993.18
2018-12-23T08:10:34.637Z,993.11
2018-12-23T08:11:41.496Z,993.07
2018-12-23T08:12:34.656Z,993.12
2018-12-23T08:13:34.732Z,993.17
2018-12-23T08:14:34.591Z,993.15
2018-12-23T08:15:34.575Z,993.14
2018-12-23T08:16:34.572Z,993.10
2018-12-23T08:17:34.574Z,993.10
2018-12-23T08:18:35.549Z,993.10
2018-12-23T08:19:35.515Z,993.11
2018-12-23T08:20:34.689Z,993.09
2018-12-23T08:21:34.507Z,993.05
2018-12-23T08:22:34.493Z,993.09
2018-12-23T08:23:34.655Z,993.02
2018-12-23T08:24:34.464Z,993.04
2018-12-23T08:25:35.722Z,993.03
2018-12-23T08:26:34.464Z,993.07
2018-12-23T08:27:34.491Z,993.08
2018-12-23T08:28:34.521Z,993.06
2018-12-23T08:29:34.447Z,993.10
2018-12-23T08:30:34.458Z,993.13
2018-12-23T08:31:34.388Z,993.14
2018-12-23T08:32:34.956Z,993.12
2018-12-23T08:33:34.978Z,993.05
2018-12-23T08:34:34.357Z,992.97
2018-12-23T08:35:34.342Z,992.97
2018-12-23T08:36:34.337Z,992.93
2018-12-23T08:37:34.319Z,992.96
2018-12-23T08:38:34.982Z,992.95
2018-12-23T08:39:34.951Z,992.91
2018-12-23T08:40:36.004Z,992.98
2018-12-23T08:41:34.277Z,992.98
2018-12-23T08:42:34.294Z,992.94
2018-12-23T08:43:34.253Z,992.93
2018-12-23T08:44:34.269Z,992.94
2018-12-23T08:45:34.281Z,992.96
2018-12-23T08:46:39.078Z,992.95
2018-12-23T08:47:35.208Z,992.95
2018-12-23T08:48:34.229Z,992.98
2018-12-23T08:49:34.954Z,992.96
2018-12-23T08:50:34.257Z,993.01
2018-12-23T08:51:34.210Z,992.97
2018-12-23T08:52:34.168Z,992.94
2018-12-23T08:53:34.949Z,992.94
2018-12-23T08:54:34.137Z,992.95
2018-12-23T08:55:34.141Z,992.93
2018-12-23T08:56:34.175Z,992.94
2018-12-23T08:57:35.445Z,992.98
2018-12-23T08:58:34.103Z,992.95
2018-12-23T08:59:34.081Z,992.98
2018-12-23T09:00:34.094Z,993.01
2018-12-23T09:01:34.060Z,992.98
2018-12-23T09:02:34.066Z,993.00
2018-12-23T09:03:34.036Z,993.01
2018-12-23T09:04:34.058Z,992.95
2018-12-23T09:05:34.025Z,993.02
2018-12-23T09:06:34.024Z,992.91
2018-12-23T09:07:35.013Z,992.96
2018-12-23T09:08:34.537Z,992.97
2018-12-23T09:09:34.045Z,992.97
2018-12-23T09:10:34.030Z,992.96
2018-12-23T09:11:33.982Z,992.99
2018-12-23T09:12:34.456Z,992.95
2018-12-23T09:13:34.577Z,993.01
2018-12-23T09:14:34.071Z,992.97
2018-12-23T09:15:33.905Z,992.99
2018-12-23T09:16:33.965Z,992.98
2018-12-23T09:17:33.895Z,992.99
2018-12-23T09:18:33.874Z,992.92
2018-12-23T09:19:33.872Z,992.98
2018-12-23T09:20:34.012Z,992.95
2018-12-23T09:21:33.876Z,992.92
2018-12-23T09:22:33.873Z,992.96
2018-12-23T09:23:33.864Z,992.92
2018-12-23T09:24:33.828Z,992.92
2018-12-23T09:25:33.798Z,992.95
2018-12-23T09:26:33.997Z,992.90
2018-12-23T09:27:33.823Z,992.89
2018-12-23T09:28:33.798Z,992.92
2018-12-23T09:29:33.766Z,992.93
2018-12-23T09:30:33.775Z,992.92
2018-12-23T09:31:33.793Z,992.89
2018-12-23T09:32:34.950Z,992.95
2018-12-23T09:33:33.938Z,992.91
2018-12-23T09:34:33.729Z,992.91
2018-12-23T09:35:33.730Z,992.92
2018-12-23T09:36:33.689Z,992.87
2018-12-23T09:37:33.679Z,992.84
2018-12-23T09:38:33.988Z,992.84
2018-12-23T09:39:33.651Z,992.85
2018-12-23T09:40:33.661Z,992.82
2018-12-23T09:41:33.624Z,992.78
2018-12-23T09:42:33.610Z,992.82
2018-12-23T09:43:40.481Z,992.84
2018-12-23T09:44:34.479Z,992.77
2018-12-23T09:45:33.619Z,992.79
2018-12-23T09:46:34.485Z,992.80
2018-12-23T09:47:33.579Z,992.82
2018-12-23T09:48:33.550Z,992.79
2018-12-23T09:49:33.565Z,992.79
2018-12-23T09:50:33.589Z,992.76
2018-12-23T09:51:33.579Z,992.71
2018-12-23T09:52:33.620Z,992.72
2018-12-23T09:53:33.523Z,992.73
2018-12-23T09:54:33.480Z,992.73
2018-12-23T09:55:33.469Z,992.69
2018-12-23T09:56:33.511Z,992.62
2018-12-23T09:57:33.451Z,992.63
2018-12-23T09:58:33.452Z,992.60
2018-12-23T09:59:33.433Z,992.61
2018-12-23T10:00:33.426Z,992.60
2018-12-23T10:01:33.417Z,992.63
2018-12-23T10:02:33.594Z,992.57
2018-12-23T10:03:33.388Z,992.55
2018-12-23T10:04:33.988Z,992.53
2018-12-23T10:05:33.364Z,992.54
2018-12-23T10:06:33.355Z,992.52
2018-12-23T10:07:33.360Z,992.55
2018-12-23T10:08:33.499Z,992.52
2018-12-23T10:09:33.328Z,992.51
2018-12-23T10:10:33.346Z,992.48
2018-12-23T10:11:34.993Z,992.48
2018-12-23T10:12:33.286Z,992.45
2018-12-23T10:13:33.272Z,992.46
2018-12-23T10:14:34.014Z,992.43
2018-12-23T10:15:33.273Z,992.43
2018-12-23T10:16:33.293Z,992.42
2018-12-23T10:17:33.227Z,992.35
2018-12-23T10:18:33.303Z,992.36
2018-12-23T10:19:33.209Z,992.37
2018-12-23T10:20:33.283Z,992.32
2018-12-23T10:21:33.194Z,992.30
2018-12-23T10:22:33.176Z,992.31
2018-12-23T10:23:33.192Z,992.28
2018-12-23T10:24:33.160Z,992.28
2018-12-23T10:25:33.157Z,992.31
2018-12-23T10:26:33.987Z,992.30
2018-12-23T10:27:33.117Z,992.30
2018-12-23T10:28:33.123Z,992.22
2018-12-23T10:29:33.148Z,992.26
2018-12-23T10:30:33.109Z,992.20
2018-12-23T10:31:34.005Z,992.21
2018-12-23T10:32:33.491Z,992.19
2018-12-23T10:33:33.082Z,992.18
2018-12-23T10:34:33.279Z,992.13
2018-12-23T10:35:33.126Z,992.07
2018-12-23T10:36:33.047Z,992.14
2018-12-23T10:37:33.044Z,992.09
2018-12-23T10:38:34.036Z,992.07
2018-12-23T10:39:32.992Z,992.09
2018-12-23T10:40:33.000Z,992.08
2018-12-23T10:41:32.996Z,992.07
2018-12-23T10:42:32.955Z,992.04
2018-12-23T10:43:32.989Z,992.09
2018-12-23T10:44:33.021Z,992.04
2018-12-23T10:45:32.977Z,992.04
2018-12-23T10:46:32.917Z,992.06
2018-12-23T10:47:32.944Z,992.01
2018-12-23T10:48:32.912Z,992.04
2018-12-23T10:49:32.884Z,992.00
2018-12-23T10:50:32.928Z,992.02
2018-12-23T10:51:32.860Z,991.98
2018-12-23T10:52:35.508Z,991.97
2018-12-23T10:53:32.877Z,991.94
2018-12-23T10:54:32.826Z,991.95
2018-12-23T10:55:32.824Z,991.90
2018-12-23T10:56:32.982Z,991.82
2018-12-23T10:57:32.795Z,991.82
2018-12-23T10:58:32.896Z,991.76
2018-12-23T10:59:32.806Z,991.74
2018-12-23T11:00:32.761Z,991.76
2018-12-23T11:01:33.475Z,991.73
2018-12-23T11:02:33.477Z,991.67
2018-12-23T11:03:32.736Z,991.63
2018-12-23T11:04:32.759Z,991.62
2018-12-23T11:05:32.769Z,991.58
2018-12-23T11:06:32.771Z,991.50
2018-12-23T11:07:32.995Z,991.51
2018-12-23T11:08:32.768Z,991.49
2018-12-23T11:09:32.675Z,991.46
2018-12-23T11:10:32.661Z,991.48
2018-12-23T11:11:32.697Z,991.39
2018-12-23T11:12:32.630Z,991.37
2018-12-23T11:13:32.639Z,991.35
2018-12-23T11:14:32.987Z,991.32
2018-12-23T11:15:32.607Z,991.28
2018-12-23T11:16:32.598Z,991.32
2018-12-23T11:17:32.638Z,991.27
2018-12-23T11:18:32.568Z,991.31
2018-12-23T11:19:32.569Z,991.25
2018-12-23T11:20:33.032Z,991.20
2018-12-23T11:21:32.551Z,991.18
2018-12-23T11:22:32.536Z,991.13
2018-12-23T11:23:32.537Z,991.17
2018-12-23T11:24:32.505Z,991.13
2018-12-23T11:25:32.512Z,991.18
2018-12-23T11:26:32.978Z,991.10
2018-12-23T11:27:32.477Z,991.05
2018-12-23T11:28:32.508Z,991.02
2018-12-23T11:29:35.010Z,991.04
2018-12-23T11:30:32.441Z,991.04
2018-12-23T11:31:32.439Z,991.08
2018-12-23T11:32:32.470Z,991.04
2018-12-23T11:33:32.405Z,991.12
2018-12-23T11:34:32.412Z,991.05
2018-12-23T11:35:32.433Z,991.04
2018-12-23T11:36:32.413Z,990.99
2018-12-23T11:37:32.466Z,990.94
2018-12-23T11:38:35.619Z,990.94
2018-12-23T11:39:32.331Z,990.91
2018-12-23T11:40:32.977Z,990.90
2018-12-23T11:41:32.367Z,990.92
2018-12-23T11:42:32.301Z,990.92
2018-12-23T11:43:32.305Z,990.94
2018-12-23T11:44:32.500Z,990.93
2018-12-23T11:45:32.269Z,990.93
2018-12-23T11:46:32.279Z,990.84
2018-12-23T11:47:32.271Z,990.81
2018-12-23T11:48:32.253Z,990.78
2018-12-23T11:49:32.266Z,990.72
2018-12-23T11:50:32.792Z,990.73
2018-12-23T11:51:32.271Z,990.73
2018-12-23T11:52:34.953Z,990.65
2018-12-23T11:53:32.220Z,990.65
2018-12-23T11:54:34.985Z,990.64
2018-12-23T11:55:32.213Z,990.65
2018-12-23T11:56:32.204Z,990.67
2018-12-23T11:57:32.146Z,990.65
2018-12-23T11:58:32.184Z,990.64
2018-12-23T11:59:34.278Z,990.73
2018-12-23T12:00:35.268Z,990.72
2018-12-23T12:01:34.958Z,990.65
2018-12-23T12:02:32.766Z,990.64
2018-12-23T12:03:32.080Z,990.57
2018-12-23T12:04:32.977Z,990.60
2018-12-23T12:05:32.057Z,990.61
2018-12-23T12:06:32.060Z,990.62
2018-12-23T12:07:32.046Z,990.58
2018-12-23T12:08:32.477Z,990.58
2018-12-23T12:09:32.008Z,990.57
2018-12-23T12:10:32.009Z,990.62
2018-12-23T12:11:32.012Z,990.59
2018-12-23T12:12:32.013Z,990.57
2018-12-23T12:13:31.981Z,990.57
2018-12-23T12:14:32.083Z,990.50
2018-12-23T12:15:32.470Z,990.51
2018-12-23T12:16:31.945Z,990.52
2018-12-23T12:17:31.939Z,990.49
2018-12-23T12:18:31.935Z,990.45
2018-12-23T12:19:31.941Z,990.44
2018-12-23T12:20:31.967Z,990.40
2018-12-23T12:21:31.886Z,990.40
2018-12-23T12:22:31.871Z,990.38
2018-12-23T12:23:31.927Z,990.35
2018-12-23T12:24:31.841Z,990.42
2018-12-23T12:25:31.881Z,990.36
2018-12-23T12:26:31.987Z,990.37
2018-12-23T12:27:31.842Z,990.37
2018-12-23T12:28:31.893Z,990.30